createdAt,value
2023-03-06T00:01:10.014Z,0.70
2023-03-06T00:03:37.952Z,0.60
2023-03-06T00:06:07.861Z,0.80
2023-03-06T00:08:35.772Z,0.50
2023-03-06T00:11:03.707Z,0.73
2023-03-06T00:13:32.217Z,0.60
2023-03-06T00:16:01.660Z,0.50
2023-03-06T00:18:30.100Z,0.67
2023-03-06T00:20:57.973Z,0.50
2023-03-06T00:23:27.987Z,0.60
2023-03-06T00:25:55.965Z,0.60
2023-03-06T00:28:23.803Z,0.60
2023-03-06T00:30:51.965Z,0.50
2023-03-06T00:33:19.900Z,0.60
2023-03-06T00:35:47.779Z,0.80
2023-03-06T00:38:15.997Z,0.70
2023-03-06T00:40:45.534Z,0.70
2023-03-06T00:43:13.843Z,0.63
2023-03-06T00:45:41.877Z,0.50
2023-03-06T00:48:10.145Z,0.50
2023-03-06T00:50:37.996Z,0.63
2023-03-06T00:53:05.949Z,0.80
2023-03-06T00:55:33.907Z,0.80
2023-03-06T00:58:03.150Z,0.57
2023-03-06T01:00:31.073Z,0.77
2023-03-06T01:02:59.069Z,0.80
2023-03-06T01:05:26.944Z,0.50
2023-03-06T01:07:55.022Z,0.63
2023-03-06T01:10:23.218Z,0.57
2023-03-06T01:12:51.042Z,0.60
2023-03-06T01:15:20.980Z,0.60
2023-03-06T01:17:49.008Z,0.60
2023-03-06T01:20:18.272Z,0.60
2023-03-06T01:22:46.108Z,0.90
2023-03-06T01:25:14.214Z,0.80
2023-03-06T01:27:42.048Z,0.60
2023-03-06T01:30:11.098Z,0.70
2023-03-06T01:32:40.768Z,0.77
2023-03-06T01:35:09.313Z,0.50
2023-03-06T01:37:37.780Z,0.50
2023-03-06T01:40:07.487Z,0.50
2023-03-06T01:42:35.329Z,0.70
2023-03-06T01:45:06.831Z,0.70
2023-03-06T01:47:34.867Z,0.60
2023-03-06T01:50:05.755Z,0.60
2023-03-06T01:52:37.851Z,0.80
2023-03-06T01:55:11.047Z,0.70
2023-03-06T01:57:43.860Z,0.83
2023-03-06T02:00:15.348Z,0.80
2023-03-06T02:02:45.543Z,0.70
2023-03-06T02:05:15.027Z,0.73
2023-03-06T02:07:44.272Z,0.60
2023-03-06T02:10:13.148Z,0.60
2023-03-06T02:12:43.708Z,0.60
2023-03-06T02:15:13.084Z,0.80
2023-03-06T02:17:43.025Z,0.70
2023-03-06T02:20:17.434Z,0.80
2023-03-06T02:22:51.620Z,0.70
2023-03-06T02:25:36.899Z,0.73
2023-03-06T02:28:05.775Z,0.73
2023-03-06T02:30:34.113Z,1.03
2023-03-06T02:33:02.096Z,0.70
2023-03-06T02:35:31.995Z,0.70
2023-03-06T02:38:03.736Z,0.90
2023-03-06T02:40:33.448Z,0.70
2023-03-06T02:43:01.718Z,0.80
2023-03-06T02:45:35.201Z,0.77
2023-03-06T02:48:03.399Z,1.00
2023-03-06T02:50:31.702Z,0.80
2023-03-06T02:52:59.816Z,0.80
2023-03-06T02:55:27.779Z,0.77
2023-03-06T02:57:56.980Z,0.73
2023-03-06T03:00:25.236Z,0.87
2023-03-06T03:02:53.995Z,0.73
2023-03-06T03:05:21.845Z,1.03
2023-03-06T03:07:49.844Z,1.00
2023-03-06T03:10:18.132Z,0.90
2023-03-06T03:12:46.260Z,0.93
2023-03-06T03:15:15.881Z,1.20
2023-03-06T03:17:43.775Z,1.00
2023-03-06T03:20:14.514Z,1.00
2023-03-06T03:22:42.471Z,1.00
2023-03-06T03:25:11.114Z,0.83
2023-03-06T03:27:38.967Z,0.70
2023-03-06T03:30:08.073Z,1.20
2023-03-06T03:32:37.539Z,0.70
2023-03-06T03:35:06.029Z,0.90
2023-03-06T03:37:34.863Z,0.80
2023-03-06T03:40:04.216Z,0.80
2023-03-06T03:42:32.091Z,1.00
2023-03-06T03:45:00.012Z,0.80
2023-03-06T03:47:27.898Z,0.70
2023-03-06T03:49:57.083Z,0.67
2023-03-06T03:52:25.139Z,0.83
2023-03-06T03:54:53.050Z,0.80
2023-03-06T03:57:20.950Z,0.83
2023-03-06T03:59:48.987Z,0.73
2023-03-06T04:02:17.143Z,0.70
2023-03-06T04:04:45.055Z,0.80
2023-03-06T04:07:14.593Z,1.00
2023-03-06T04:09:42.709Z,0.87
2023-03-06T04:12:10.728Z,1.13
2023-03-06T04:14:38.667Z,0.80
2023-03-06T04:17:06.752Z,0.87
2023-03-06T04:19:34.545Z,0.80
2023-03-06T04:22:02.910Z,0.77
2023-03-06T04:24:32.228Z,0.87
2023-03-06T04:27:00.071Z,1.00
2023-03-06T04:29:28.027Z,0.70
2023-03-06T04:31:55.924Z,0.83
2023-03-06T04:34:23.758Z,0.80
2023-03-06T04:36:51.785Z,0.80
2023-03-06T04:39:19.719Z,0.80
2023-03-06T04:41:48.941Z,0.90
2023-03-06T04:44:16.943Z,0.90
2023-03-06T04:46:44.860Z,1.07
2023-03-06T04:49:12.688Z,0.70
2023-03-06T04:51:40.695Z,0.77
2023-03-06T04:54:08.577Z,0.70
2023-03-06T04:56:36.421Z,0.70
2023-03-06T04:59:05.972Z,0.77
2023-03-06T05:01:33.853Z,0.80
2023-03-06T05:04:01.784Z,0.90
2023-03-06T05:06:29.766Z,0.73
2023-03-06T05:08:59.950Z,0.70
2023-03-06T05:11:27.958Z,0.80
2023-03-06T05:13:55.908Z,0.90
2023-03-06T05:16:25.232Z,0.87
2023-03-06T05:18:53.043Z,0.90
2023-03-06T05:21:21.195Z,0.87
2023-03-06T05:23:49.836Z,0.90
2023-03-06T05:26:17.787Z,0.73
2023-03-06T05:28:45.720Z,1.00
2023-03-06T05:31:13.616Z,0.80
2023-03-06T05:33:42.899Z,1.00
2023-03-06T05:36:11.242Z,0.87
2023-03-06T05:38:39.204Z,0.90
2023-03-06T05:41:07.071Z,0.80
2023-03-06T05:43:35.037Z,1.00
2023-03-06T05:46:04.088Z,0.60
2023-03-06T05:48:32.041Z,0.87
2023-03-06T05:51:02.546Z,0.77
2023-03-06T05:53:31.203Z,0.80
2023-03-06T05:56:00.020Z,0.90
2023-03-06T05:58:28.295Z,0.97
2023-03-06T06:00:56.609Z,0.80
2023-03-06T06:03:24.920Z,0.80
2023-03-06T06:05:53.659Z,0.73
2023-03-06T06:08:23.066Z,0.80
2023-03-06T06:10:53.301Z,0.90
2023-03-06T06:13:21.533Z,1.03
2023-03-06T06:15:53.953Z,0.80
2023-03-06T06:18:21.826Z,0.90
2023-03-06T06:20:49.972Z,0.70
2023-03-06T06:23:17.847Z,0.70
2023-03-06T06:25:47.080Z,0.77
2023-03-06T06:28:15.083Z,1.00
2023-03-06T06:30:43.048Z,0.70
2023-03-06T06:33:10.904Z,0.77
2023-03-06T06:35:39.070Z,0.60
2023-03-06T06:38:06.948Z,0.60
2023-03-06T06:40:34.797Z,0.60
2023-03-06T06:43:04.334Z,0.80
2023-03-06T06:45:32.197Z,0.80
2023-03-06T06:48:00.232Z,0.77
2023-03-06T06:50:28.635Z,0.70
2023-03-06T06:52:56.532Z,0.83
2023-03-06T06:55:24.353Z,0.70
2023-03-06T06:57:52.339Z,0.77
2023-03-06T07:00:22.516Z,0.97
2023-03-06T07:02:51.296Z,0.70
2023-03-06T07:05:22.025Z,1.30
2023-03-06T07:07:51.379Z,0.80
2023-03-06T07:10:21.028Z,0.80
2023-03-06T07:12:49.101Z,0.77
2023-03-06T07:15:18.172Z,0.80
2023-03-06T07:17:49.891Z,0.50
2023-03-06T07:20:19.040Z,0.80
2023-03-06T07:22:51.507Z,0.90
2023-03-06T07:25:20.777Z,0.90
2023-03-06T07:27:53.415Z,0.60
2023-03-06T07:30:22.410Z,0.73
2023-03-06T07:32:53.908Z,0.83
2023-03-06T07:35:22.063Z,0.60
2023-03-06T07:37:50.025Z,0.73
2023-03-06T07:40:18.387Z,0.90
2023-03-06T07:42:46.492Z,0.70
2023-03-06T07:45:14.509Z,1.00
2023-03-06T07:47:42.562Z,0.80
2023-03-06T07:50:13.248Z,0.70
2023-03-06T07:52:41.133Z,0.70
2023-03-06T07:55:10.749Z,0.97
2023-03-06T07:57:39.242Z,0.77
2023-03-06T08:00:10.971Z,1.00
2023-03-06T08:02:40.390Z,0.90
2023-03-06T08:05:09.436Z,0.73
2023-03-06T08:07:38.795Z,0.60
2023-03-06T08:10:07.302Z,0.47
2023-03-06T08:12:35.290Z,0.70
2023-03-06T08:15:03.726Z,0.80
2023-03-06T08:17:31.579Z,0.77
2023-03-06T08:19:59.518Z,0.47
2023-03-06T08:22:27.423Z,1.00
2023-03-06T08:24:57.556Z,0.73
2023-03-06T08:27:25.468Z,0.87
2023-03-06T08:29:53.448Z,0.80
2023-03-06T08:32:21.368Z,0.97
2023-03-06T08:34:49.309Z,0.90
2023-03-06T08:37:17.457Z,0.50
2023-03-06T08:39:45.458Z,0.67
2023-03-06T08:42:15.911Z,0.63
2023-03-06T08:44:44.163Z,0.70
2023-03-06T08:47:12.148Z,0.77
2023-03-06T08:49:40.590Z,1.00
2023-03-06T08:52:09.301Z,0.70
2023-03-06T08:54:37.396Z,0.80
2023-03-06T08:57:05.356Z,0.70
2023-03-06T08:59:34.632Z,0.70
2023-03-06T09:02:04.020Z,0.80
2023-03-06T09:04:32.359Z,0.63
2023-03-06T09:07:01.713Z,0.77
2023-03-06T09:09:29.622Z,0.70
2023-03-06T09:11:57.521Z,0.80
2023-03-06T09:14:25.507Z,0.80
2023-03-06T09:16:54.797Z,0.60
2023-03-06T09:19:22.720Z,0.80
2023-03-06T09:21:50.677Z,0.80
2023-03-06T09:24:18.556Z,0.60
2023-03-06T09:26:48.301Z,0.80
2023-03-06T09:29:17.834Z,0.80
2023-03-06T09:31:46.082Z,0.87
2023-03-06T09:34:15.432Z,0.77
2023-03-06T09:36:55.856Z,1.13
2023-03-06T09:39:26.543Z,0.77
2023-03-06T09:41:57.010Z,0.60
2023-03-06T09:44:27.815Z,0.70
2023-03-06T09:47:35.184Z,0.90
2023-03-06T09:50:23.734Z,0.70
2023-03-06T09:53:17.933Z,0.57
2023-03-06T09:55:51.546Z,0.70
2023-03-06T09:58:23.144Z,0.60
2023-03-06T10:00:59.948Z,0.50
2023-03-06T10:03:32.488Z,1.00
2023-03-06T10:06:06.220Z,0.70
2023-03-06T10:08:43.845Z,0.70
2023-03-06T10:11:15.833Z,0.73
2023-03-06T10:13:47.076Z,0.50
2023-03-06T10:16:24.850Z,0.83
2023-03-06T10:18:53.709Z,0.67
2023-03-06T10:21:35.685Z,0.50
2023-03-06T10:24:14.636Z,0.80
2023-03-06T10:26:50.024Z,0.53
2023-03-06T10:29:41.046Z,0.80
2023-03-06T10:32:27.010Z,0.77
2023-03-06T10:35:00.630Z,0.70
2023-03-06T10:37:32.311Z,0.63
2023-03-06T10:40:05.199Z,0.60
2023-03-06T10:42:33.177Z,0.70
2023-03-06T10:45:10.276Z,0.87
2023-03-06T10:47:38.622Z,0.60
2023-03-06T10:50:20.338Z,0.60
2023-03-06T10:53:00.872Z,0.93
2023-03-06T10:55:31.314Z,0.70
2023-03-06T10:58:17.384Z,0.50
2023-03-06T11:00:45.388Z,0.80
2023-03-06T11:03:24.108Z,0.70
2023-03-06T11:06:04.201Z,0.60
2023-03-06T11:08:35.401Z,0.60
2023-03-06T11:11:06.919Z,0.70
2023-03-06T11:13:36.950Z,0.60
2023-03-06T11:16:08.533Z,0.90
2023-03-06T11:18:40.006Z,1.00
2023-03-06T11:21:26.408Z,0.70
2023-03-06T11:23:58.129Z,0.70
2023-03-06T11:26:35.761Z,0.80
2023-03-06T11:29:29.623Z,0.80
2023-03-06T11:32:05.389Z,0.60
2023-03-06T11:34:41.367Z,0.73
2023-03-06T11:37:16.376Z,0.37
2023-03-06T11:39:53.691Z,0.80
2023-03-06T11:42:26.392Z,0.40
2023-03-06T11:45:10.007Z,0.67
2023-03-06T11:47:41.400Z,0.87
2023-03-06T11:50:20.161Z,0.60
2023-03-06T11:52:53.915Z,0.87
2023-03-06T11:55:37.903Z,0.80
2023-03-06T11:58:26.591Z,0.50
2023-03-06T12:01:04.187Z,0.60
2023-03-06T12:03:56.922Z,0.53
2023-03-06T12:06:36.995Z,0.43
2023-03-06T12:09:22.139Z,0.63
2023-03-06T12:12:00.525Z,0.53
2023-03-06T12:14:40.205Z,0.60
2023-03-06T12:17:19.238Z,0.90
2023-03-06T12:20:00.594Z,0.50
2023-03-06T12:22:42.251Z,0.60
2023-03-06T12:25:29.452Z,0.70
2023-03-06T12:28:09.442Z,0.40
2023-03-06T12:31:07.142Z,0.43
2023-03-06T12:33:44.314Z,0.40
2023-03-06T12:36:51.308Z,0.47
2023-03-06T12:39:28.456Z,0.53
2023-03-06T12:42:23.392Z,0.50
2023-03-06T12:45:18.683Z,0.30
2023-03-06T12:47:49.455Z,0.40
2023-03-06T12:50:25.181Z,0.60
2023-03-06T12:52:54.930Z,0.40
2023-03-06T12:55:25.890Z,0.50
2023-03-06T12:57:54.193Z,0.60
2023-03-06T13:01:07.984Z,0.70
2023-03-06T13:03:54.179Z,0.70
2023-03-06T13:06:56.138Z,0.80
2023-03-06T13:09:34.010Z,1.03
2023-03-06T13:12:20.620Z,0.60
2023-03-06T13:14:57.203Z,0.60
2023-03-06T13:17:28.527Z,0.37
2023-03-06T13:20:27.929Z,0.60
2023-03-06T13:22:55.927Z,0.67
2023-03-06T13:25:48.886Z,0.40
2023-03-06T13:28:39.252Z,0.60
2023-03-06T13:31:18.116Z,0.50
2023-03-06T13:33:56.292Z,0.73
2023-03-06T13:36:29.567Z,0.40
2023-03-06T13:39:06.358Z,0.55
2023-03-06T13:41:57.772Z,0.80
2023-03-06T13:44:51.233Z,0.70
2023-03-06T13:48:14.083Z,0.52
2023-03-06T13:50:39.820Z,0.60
2023-03-06T13:53:40.807Z,0.40
2023-03-06T13:56:49.143Z,0.50
2023-03-06T13:59:38.477Z,0.60
2023-03-06T14:02:25.143Z,0.80
2023-03-06T14:04:55.874Z,0.60
2023-03-06T14:07:27.129Z,0.45
2023-03-06T14:10:04.255Z,0.50
2023-03-06T14:12:35.263Z,0.60
2023-03-06T14:15:13.306Z,0.52
2023-03-06T14:17:53.758Z,0.68
2023-03-06T14:20:22.568Z,0.47
2023-03-06T14:22:50.571Z,0.50
2023-03-06T14:25:27.711Z,0.50
2023-03-06T14:28:02.904Z,0.67
2023-03-06T14:30:33.792Z,0.53
2023-03-06T14:33:11.549Z,0.80
2023-03-06T14:35:39.719Z,0.83
2023-03-06T14:38:08.150Z,0.60
2023-03-06T14:40:46.177Z,0.50
2023-03-06T14:43:21.285Z,0.60
2023-03-06T14:45:55.340Z,0.50
2023-03-06T14:48:24.740Z,0.50
2023-03-06T14:50:54.457Z,0.60
2023-03-06T14:53:28.151Z,0.63
2023-03-06T14:56:00.415Z,0.67
2023-03-06T14:58:32.437Z,0.50
2023-03-06T15:01:04.765Z,0.77
2023-03-06T15:03:42.647Z,0.80
2023-03-06T15:06:16.509Z,0.47
2023-03-06T15:08:47.263Z,0.60
2023-03-06T15:11:16.708Z,0.60
2023-03-06T15:14:00.633Z,0.50
2023-03-06T15:16:30.404Z,0.67
2023-03-06T15:19:00.151Z,0.73
2023-03-06T15:21:31.370Z,0.50
2023-03-06T15:23:59.701Z,0.70
2023-03-06T15:26:33.174Z,0.50
2023-03-06T15:29:09.469Z,0.67
2023-03-06T15:31:39.412Z,0.70
2023-03-06T15:34:24.459Z,0.60
2023-03-06T15:36:57.758Z,0.50
2023-03-06T15:39:43.482Z,0.70
2023-03-06T15:42:21.540Z,0.60
2023-03-06T15:44:51.518Z,0.40
2023-03-06T15:47:19.479Z,0.50
2023-03-06T15:49:52.249Z,0.40
2023-03-06T15:52:20.746Z,0.57
2023-03-06T15:54:48.971Z,0.40
2023-03-06T15:57:22.380Z,0.70
2023-03-06T15:59:51.521Z,0.50
2023-03-06T16:02:22.275Z,0.40
2023-03-06T16:04:51.424Z,0.50
2023-03-06T16:07:20.595Z,0.43
2023-03-06T16:09:48.543Z,0.37
2023-03-06T16:12:20.079Z,0.40
2023-03-06T16:14:48.892Z,0.60
2023-03-06T16:17:17.697Z,0.43
2023-03-06T16:19:46.260Z,0.40
2023-03-06T16:22:14.585Z,0.63
2023-03-06T16:24:43.443Z,0.57
2023-03-06T16:27:17.793Z,0.40
2023-03-06T16:29:47.222Z,0.30
2023-03-06T16:32:15.313Z,0.40
2023-03-06T16:34:43.358Z,0.40
2023-03-06T16:37:13.818Z,0.43
2023-03-06T16:39:41.767Z,0.50
2023-03-06T16:42:10.497Z,0.40
2023-03-06T16:44:38.723Z,0.67
2023-03-06T16:47:12.109Z,0.40
2023-03-06T16:49:40.636Z,0.70
2023-03-06T16:52:09.975Z,1.70
2023-03-06T16:54:37.939Z,0.53
2023-03-06T16:57:05.965Z,0.57
2023-03-06T16:59:33.928Z,0.30
2023-03-06T17:02:01.947Z,0.53
2023-03-06T17:04:31.251Z,0.40
2023-03-06T17:06:59.126Z,0.60
2023-03-06T17:09:27.087Z,0.67
2023-03-06T17:11:54.937Z,0.70
2023-03-06T17:14:22.977Z,0.97
2023-03-06T17:16:51.040Z,0.90
2023-03-06T17:19:19.025Z,1.20
2023-03-06T17:21:48.253Z,1.40
2023-03-06T17:24:16.285Z,0.93
2023-03-06T17:26:45.426Z,0.90
2023-03-06T17:29:13.383Z,0.50
2023-03-06T17:31:41.674Z,0.70
2023-03-06T17:34:09.660Z,1.20
2023-03-06T17:36:37.498Z,1.00
2023-03-06T17:39:07.271Z,1.20
2023-03-06T17:41:35.196Z,1.00
2023-03-06T17:44:03.031Z,0.60
2023-03-06T17:46:32.404Z,1.10
2023-03-06T17:49:00.318Z,0.90
2023-03-06T17:51:28.662Z,1.90
2023-03-06T17:53:57.933Z,1.00
2023-03-06T17:56:27.808Z,1.87
2023-03-06T17:58:55.639Z,0.97
2023-03-06T18:01:27.606Z,1.87
2023-03-06T18:03:55.817Z,0.90
2023-03-06T18:06:26.116Z,1.37
2023-03-06T18:08:54.538Z,1.00
2023-03-06T18:11:23.506Z,1.20
2023-03-06T18:13:53.187Z,0.90
2023-03-06T18:16:24.072Z,0.67
2023-03-06T18:18:53.202Z,0.83
2023-03-06T18:21:24.056Z,1.63
2023-03-06T18:23:52.825Z,0.90
2023-03-06T18:26:22.888Z,1.10
2023-03-06T18:28:54.898Z,1.60
2023-03-06T18:31:24.539Z,1.43
2023-03-06T18:33:53.353Z,1.20
2023-03-06T18:36:23.209Z,1.10
2023-03-06T18:38:51.546Z,1.23
2023-03-06T18:41:20.718Z,1.57
2023-03-06T18:43:55.155Z,1.00
2023-03-06T18:46:23.428Z,0.90
2023-03-06T18:48:51.448Z,1.20
2023-03-06T18:51:20.634Z,0.90
2023-03-06T18:53:48.752Z,1.10
2023-03-06T18:56:18.583Z,1.47
2023-03-06T18:58:46.830Z,0.80
2023-03-06T19:01:16.132Z,1.10
2023-03-06T19:03:44.379Z,0.93
2023-03-06T19:06:14.252Z,1.00
2023-03-06T19:08:42.973Z,1.07
2023-03-06T19:11:13.297Z,1.00
2023-03-06T19:13:41.697Z,1.10
2023-03-06T19:16:09.649Z,0.90
2023-03-06T19:18:39.025Z,0.70
2023-03-06T19:21:11.475Z,0.90
2023-03-06T19:23:39.644Z,0.80
2023-03-06T19:26:08.517Z,0.93
2023-03-06T19:28:37.631Z,0.80
2023-03-06T19:31:10.225Z,0.93
2023-03-06T19:33:40.560Z,0.87
2023-03-06T19:36:10.628Z,0.80
2023-03-06T19:38:38.608Z,1.00
2023-03-06T19:41:11.918Z,0.70
2023-03-06T19:43:40.642Z,0.70
2023-03-06T19:46:12.972Z,0.83
2023-03-06T19:48:42.617Z,0.70
2023-03-06T19:51:11.120Z,1.50
2023-03-06T19:53:40.092Z,1.30
2023-03-06T19:56:10.459Z,0.80
2023-03-06T19:58:40.905Z,1.13
2023-03-06T20:01:11.029Z,1.13
2023-03-06T20:03:39.505Z,1.67
2023-03-06T20:06:13.231Z,0.90
2023-03-06T20:08:41.372Z,1.10
2023-03-06T20:11:17.108Z,1.20
2023-03-06T20:13:47.444Z,1.00
2023-03-06T20:16:16.069Z,1.17
2023-03-06T20:18:44.303Z,1.33
2023-03-06T20:21:14.427Z,1.20
2023-03-06T20:23:42.629Z,1.47
2023-03-06T20:26:13.221Z,0.80
2023-03-06T20:28:42.594Z,1.00
2023-03-06T20:31:13.389Z,1.10
2023-03-06T20:33:41.416Z,1.10
2023-03-06T20:36:14.702Z,1.17
2023-03-06T20:38:43.034Z,1.10
2023-03-06T20:41:15.396Z,1.20
2023-03-06T20:43:43.937Z,1.13
2023-03-06T20:46:13.284Z,1.20
2023-03-06T20:48:41.529Z,1.03
2023-03-06T20:51:15.964Z,1.20
2023-03-06T20:53:45.412Z,2.10
2023-03-06T20:56:13.878Z,2.00
2023-03-06T20:58:41.996Z,1.77
2023-03-06T21:01:10.227Z,1.60
2023-03-06T21:03:38.022Z,1.63
2023-03-06T21:06:06.208Z,1.73
2023-03-06T21:08:34.214Z,1.80
2023-03-06T21:11:03.424Z,1.80
2023-03-06T21:13:32.127Z,2.03
2023-03-06T21:16:00.255Z,1.23
2023-03-06T21:18:28.118Z,1.80
2023-03-06T21:20:56.000Z,1.20
2023-03-06T21:23:24.041Z,0.70
2023-03-06T21:25:53.342Z,1.20
2023-03-06T21:28:22.825Z,1.10
2023-03-06T21:30:50.824Z,1.00
2023-03-06T21:33:18.663Z,1.10
2023-03-06T21:35:47.584Z,1.30
2023-03-06T21:38:15.816Z,0.70
2023-03-06T21:40:45.462Z,1.40
2023-03-06T21:43:13.499Z,0.80
2023-03-06T21:45:46.142Z,1.00
2023-03-06T21:48:14.643Z,1.17
2023-03-06T21:50:43.419Z,1.50
2023-03-06T21:53:11.487Z,1.40
2023-03-06T21:55:41.618Z,1.67
2023-03-06T21:58:09.733Z,1.93
2023-03-06T22:00:37.676Z,2.77
2023-03-06T22:03:06.994Z,2.13
2023-03-06T22:05:35.520Z,1.80
2023-03-06T22:08:03.378Z,1.30
2023-03-06T22:10:31.321Z,1.37
2023-03-06T22:12:59.248Z,1.97
2023-03-06T22:15:27.256Z,1.20
2023-03-06T22:17:55.212Z,1.80
2023-03-06T22:20:24.502Z,1.07
2023-03-06T22:22:52.340Z,1.50
2023-03-06T22:25:20.293Z,1.63
2023-03-06T22:27:48.239Z,1.30
2023-03-06T22:30:16.414Z,1.60
2023-03-06T22:32:44.362Z,1.60
2023-03-06T22:35:12.354Z,1.50
2023-03-06T22:37:41.642Z,1.40
2023-03-06T22:40:10.991Z,1.83
2023-03-06T22:42:38.930Z,1.53
2023-03-06T22:45:07.644Z,1.57
2023-03-06T22:47:39.407Z,2.17
2023-03-06T22:50:08.381Z,2.70
2023-03-06T22:52:36.511Z,3.07
2023-03-06T22:55:06.871Z,3.07
2023-03-06T22:57:34.824Z,2.63
2023-03-06T23:00:02.935Z,2.57
2023-03-06T23:02:35.614Z,2.77
2023-03-06T23:05:03.784Z,3.23
2023-03-06T23:07:31.683Z,2.00
2023-03-06T23:09:59.839Z,1.60
2023-03-06T23:12:29.093Z,1.17
2023-03-06T23:14:56.950Z,1.53
2023-03-06T23:17:25.100Z,1.90
2023-03-06T23:19:53.175Z,2.47
2023-03-06T23:22:20.988Z,1.77
2023-03-06T23:24:48.935Z,2.10
2023-03-06T23:27:17.202Z,1.87
2023-03-06T23:29:46.428Z,2.17
2023-03-06T23:32:14.513Z,2.00
2023-03-06T23:34:42.570Z,2.03
2023-03-06T23:37:10.533Z,2.00
2023-03-06T23:39:38.619Z,1.80
2023-03-06T23:42:06.864Z,2.97
2023-03-06T23:44:35.757Z,2.17
2023-03-06T23:47:05.140Z,2.63
2023-03-06T23:49:33.108Z,2.07
2023-03-06T23:52:00.983Z,1.50
2023-03-06T23:54:28.908Z,2.20
2023-03-06T23:56:56.808Z,2.40
2023-03-06T23:59:24.627Z,2.37
